sensor_id;sensor_type;location;lat;lon;timestamp;pressure;altitude;pressure_sealevel;temperature;humidity
11349;BME280;5729;43.570;27.826;2023-02-20T00:02:13;98870.97;;;12.78;100.00
11349;BME280;5729;43.570;27.826;2023-02-20T00:04:39;98871.75;;;12.79;100.00
11349;BME280;5729;43.570;27.826;2023-02-20T00:07:05;98858.63;;;12.81;100.00
11349;BME280;5729;43.570;27.826;2023-02-20T00:09:30;98873.19;;;12.65;100.00
11349;BME280;5729;43.570;27.826;2023-02-20T00:11:55;98870.56;;;12.76;100.00
11349;BME280;5729;43.570;27.826;2023-02-20T00:14:21;98879.41;;;12.69;100.00
11349;BME280;5729;43.570;27.826;2023-02-20T00:16:47;98895.38;;;12.85;100.00
11349;BME280;5729;43.570;27.826;2023-02-20T00:19:12;98896.16;;;12.86;100.00
11349;BME280;5729;43.570;27.826;2023-02-20T00:21:44;98889.81;;;12.64;100.00
11349;BME280;5729;43.570;27.826;2023-02-20T00:24:10;98906.31;;;12.52;100.00
11349;BME280;5729;43.570;27.826;2023-02-20T00:26:36;98895.13;;;12.57;100.00
11349;BME280;5729;43.570;27.826;2023-02-20T00:29:01;98903.84;;;12.36;100.00
11349;BME280;5729;43.570;27.826;2023-02-20T00:31:26;98905.66;;;12.25;100.00
11349;BME280;5729;43.570;27.826;2023-02-20T00:33:52;98895.06;;;12.09;100.00
11349;BME280;5729;43.570;27.826;2023-02-20T00:36:19;98892.47;;;12.16;100.00
11349;BME280;5729;43.570;27.826;2023-02-20T00:38:45;98895.78;;;12.03;100.00
11349;BME280;5729;43.570;27.826;2023-02-20T00:41:11;98898.84;;;12.01;100.00
11349;BME280;5729;43.570;27.826;2023-02-20T00:43:39;98895.97;;;11.87;100.00
11349;BME280;5729;43.570;27.826;2023-02-20T00:46:05;98902.78;;;11.74;100.00
11349;BME280;5729;43.570;27.826;2023-02-20T00:48:31;98912.97;;;11.57;100.00
11349;BME280;5729;43.570;27.826;2023-02-20T00:50:56;98905.97;;;11.53;100.00
11349;BME280;5729;43.570;27.826;2023-02-20T00:53:22;98907.66;;;11.64;100.00
11349;BME280;5729;43.570;27.826;2023-02-20T00:55:47;98908.00;;;11.59;100.00
11349;BME280;5729;43.570;27.826;2023-02-20T00:58:13;98890.97;;;11.25;100.00
11349;BME280;5729;43.570;27.826;2023-02-20T01:00:38;98905.41;;;11.40;100.00
11349;BME280;5729;43.570;27.826;2023-02-20T01:03:03;98913.41;;;11.33;100.00
11349;BME280;5729;43.570;27.826;2023-02-20T01:05:29;98915.53;;;11.20;100.00
11349;BME280;5729;43.570;27.826;2023-02-20T01:07:54;98911.81;;;11.28;100.00
11349;BME280;5729;43.570;27.826;2023-02-20T01:10:20;98905.97;;;11.23;100.00
11349;BME280;5729;43.570;27.826;2023-02-20T01:12:45;98916.44;;;11.28;100.00
11349;BME280;5729;43.570;27.826;2023-02-20T01:15:13;98920.06;;;11.13;100.00
11349;BME280;5729;43.570;27.826;2023-02-20T01:17:39;98900.06;;;11.14;100.00
11349;BME280;5729;43.570;27.826;2023-02-20T01:20:05;98908.59;;;11.19;100.00
11349;BME280;5729;43.570;27.826;2023-02-20T01:22:32;98899.00;;;11.22;100.00
11349;BME280;5729;43.570;27.826;2023-02-20T01:24:57;98911.88;;;11.06;100.00
11349;BME280;5729;43.570;27.826;2023-02-20T01:27:22;98906.72;;;10.97;100.00
11349;BME280;5729;43.570;27.826;2023-02-20T01:29:48;98901.19;;;10.86;100.00
11349;BME280;5729;43.570;27.826;2023-02-20T01:32:13;98905.91;;;10.93;100.00
11349;BME280;5729;43.570;27.826;2023-02-20T01:34:39;98914.88;;;11.01;100.00
11349;BME280;5729;43.570;27.826;2023-02-20T01:37:05;98909.69;;;10.88;100.00
11349;BME280;5729;43.570;27.826;2023-02-20T01:39:30;98921.72;;;10.95;100.00
11349;BME280;5729;43.570;27.826;2023-02-20T01:42:00;98907.72;;;10.85;100.00
11349;BME280;5729;43.570;27.826;2023-02-20T01:44:30;98921.72;;;10.95;100.00
11349;BME280;5729;43.570;27.826;2023-02-20T01:46:56;98928.19;;;10.90;100.00
11349;BME280;5729;43.570;27.826;2023-02-20T01:49:55;98920.91;;;10.90;100.00
11349;BME280;5729;43.570;27.826;2023-02-20T01:52:23;98926.06;;;10.76;100.00
11349;BME280;5729;43.570;27.826;2023-02-20T01:55:11;98925.34;;;10.79;100.00
11349;BME280;5729;43.570;27.826;2023-02-20T01:57:40;98936.13;;;10.79;100.00
11349;BME280;5729;43.570;27.826;2023-02-20T02:00:13;98952.47;;;10.67;100.00
11349;BME280;5729;43.570;27.826;2023-02-20T02:03:08;98944.22;;;10.57;100.00
11349;BME280;5729;43.570;27.826;2023-02-20T02:05:36;98928.69;;;10.50;100.00
11349;BME280;5729;43.570;27.826;2023-02-20T02:08:05;98925.34;;;10.57;100.00
11349;BME280;5729;43.570;27.826;2023-02-20T02:10:39;98922.41;;;10.42;100.00
11349;BME280;5729;43.570;27.826;2023-02-20T02:13:07;98928.22;;;10.44;100.00
11349;BME280;5729;43.570;27.826;2023-02-20T02:15:34;98932.81;;;10.44;100.00
11349;BME280;5729;43.570;27.826;2023-02-20T02:34:49;98984.97;;;10.55;100.00
11349;BME280;5729;43.570;27.826;2023-02-20T02:42:41;98996.44;;;10.29;100.00
11349;BME280;5729;43.570;27.826;2023-02-20T02:50:55;99031.09;;;9.76;100.00
11349;BME280;5729;43.570;27.826;2023-02-20T02:53:22;99035.97;;;9.71;100.00
11349;BME280;5729;43.570;27.826;2023-02-20T02:55:48;99026.47;;;9.58;100.00
11349;BME280;5729;43.570;27.826;2023-02-20T02:58:14;99034.22;;;9.28;100.00
11349;BME280;5729;43.570;27.826;2023-02-20T03:00:52;99028.88;;;9.12;100.00
11349;BME280;5729;43.570;27.826;2023-02-20T03:03:38;99041.78;;;9.06;100.00
11349;BME280;5729;43.570;27.826;2023-02-20T03:06:27;99049.91;;;8.94;100.00
11349;BME280;5729;43.570;27.826;2023-02-20T03:09:02;99052.00;;;8.85;100.00
11349;BME280;5729;43.570;27.826;2023-02-20T03:11:31;99065.16;;;8.74;100.00
11349;BME280;5729;43.570;27.826;2023-02-20T03:14:04;99069.91;;;8.65;100.00
11349;BME280;5729;43.570;27.826;2023-02-20T03:19:39;99093.84;;;8.30;100.00
11349;BME280;5729;43.570;27.826;2023-02-20T03:22:12;99087.06;;;8.21;100.00
11349;BME280;5729;43.570;27.826;2023-02-20T03:24:40;99093.75;;;8.15;100.00
11349;BME280;5729;43.570;27.826;2023-02-20T03:27:57;99093.88;;;8.18;100.00
11349;BME280;5729;43.570;27.826;2023-02-20T03:33:53;99092.41;;;8.21;100.00
11349;BME280;5729;43.570;27.826;2023-02-20T03:36:29;99100.34;;;8.17;100.00
11349;BME280;5729;43.570;27.826;2023-02-20T03:39:17;99099.47;;;8.13;100.00
11349;BME280;5729;43.570;27.826;2023-02-20T03:42:06;99112.94;;;7.89;100.00
11349;BME280;5729;43.570;27.826;2023-02-20T03:44:52;99116.97;;;7.71;100.00
11349;BME280;5729;43.570;27.826;2023-02-20T03:47:20;99136.19;;;7.73;100.00
11349;BME280;5729;43.570;27.826;2023-02-20T03:49:48;99147.72;;;7.73;100.00
11349;BME280;5729;43.570;27.826;2023-02-20T03:52:15;99134.75;;;7.75;100.00
11349;BME280;5729;43.570;27.826;2023-02-20T03:54:41;99153.38;;;7.47;100.00
11349;BME280;5729;43.570;27.826;2023-02-20T03:57:13;99160.84;;;7.29;100.00
11349;BME280;5729;43.570;27.826;2023-02-20T04:02:17;99157.28;;;7.38;100.00
11349;BME280;5729;43.570;27.826;2023-02-20T04:04:47;99155.84;;;7.40;100.00
11349;BME280;5729;43.570;27.826;2023-02-20T04:07:18;99157.41;;;7.41;100.00
11349;BME280;5729;43.570;27.826;2023-02-20T04:09:45;99163.00;;;7.48;100.00
11349;BME280;5729;43.570;27.826;2023-02-20T04:12:27;99171.75;;;7.12;100.00
11349;BME280;5729;43.570;27.826;2023-02-20T04:14:55;99180.13;;;7.11;100.00
11349;BME280;5729;43.570;27.826;2023-02-20T04:17:30;99182.63;;;7.28;100.00
11349;BME280;5729;43.570;27.826;2023-02-20T04:19:56;99182.91;;;7.14;100.00
11349;BME280;5729;43.570;27.826;2023-02-20T04:22:26;99191.31;;;7.25;100.00
11349;BME280;5729;43.570;27.826;2023-02-20T04:27:58;99198.91;;;7.23;100.00
11349;BME280;5729;43.570;27.826;2023-02-20T04:30:24;99209.38;;;7.16;100.00
11349;BME280;5729;43.570;27.826;2023-02-20T04:32:49;99216.56;;;7.24;100.00
11349;BME280;5729;43.570;27.826;2023-02-20T04:35:16;99220.72;;;7.34;100.00
11349;BME280;5729;43.570;27.826;2023-02-20T04:37:43;99220.34;;;7.11;100.00
11349;BME280;5729;43.570;27.826;2023-02-20T04:40:10;99212.97;;;6.87;100.00
11349;BME280;5729;43.570;27.826;2023-02-20T04:42:36;99214.13;;;6.77;100.00
11349;BME280;5729;43.570;27.826;2023-02-20T04:45:01;99217.72;;;7.02;100.00
11349;BME280;5729;43.570;27.826;2023-02-20T04:47:28;99227.47;;;7.07;100.00
11349;BME280;5729;43.570;27.826;2023-02-20T04:49:53;99227.25;;;6.91;100.00
11349;BME280;5729;43.570;27.826;2023-02-20T04:52:18;99238.75;;;6.91;100.00
11349;BME280;5729;43.570;27.826;2023-02-20T04:54:44;99253.59;;;6.89;100.00
11349;BME280;5729;43.570;27.826;2023-02-20T04:57:09;99253.09;;;6.75;100.00
11349;BME280;5729;43.570;27.826;2023-02-20T04:59:35;99267.38;;;6.79;100.00
11349;BME280;5729;43.570;27.826;2023-02-20T05:02:00;99268.28;;;7.04;100.00
11349;BME280;5729;43.570;27.826;2023-02-20T05:04:26;99274.31;;;6.80;100.00
11349;BME280;5729;43.570;27.826;2023-02-20T05:06:53;99288.22;;;6.52;100.00
11349;BME280;5729;43.570;27.826;2023-02-20T05:09:20;99271.94;;;6.78;100.00
11349;BME280;5729;43.570;27.826;2023-02-20T05:11:45;99275.53;;;6.62;100.00
11349;BME280;5729;43.570;27.826;2023-02-20T05:14:11;99274.38;;;6.71;100.00
11349;BME280;5729;43.570;27.826;2023-02-20T05:16:37;99280.69;;;6.67;100.00
11349;BME280;5729;43.570;27.826;2023-02-20T05:19:04;99277.78;;;6.30;100.00
11349;BME280;5729;43.570;27.826;2023-02-20T05:21:29;99283.34;;;6.46;100.00
11349;BME280;5729;43.570;27.826;2023-02-20T05:24:13;99294.03;;;6.54;100.00
11349;BME280;5729;43.570;27.826;2023-02-20T05:26:39;99304.91;;;6.20;100.00
11349;BME280;5729;43.570;27.826;2023-02-20T05:29:05;99309.19;;;6.04;100.00
11349;BME280;5729;43.570;27.826;2023-02-20T05:31:30;99316.72;;;6.19;100.00
11349;BME280;5729;43.570;27.826;2023-02-20T05:33:55;99290.81;;;5.94;100.00
11349;BME280;5729;43.570;27.826;2023-02-20T05:36:21;99316.44;;;6.03;100.00
11349;BME280;5729;43.570;27.826;2023-02-20T05:38:46;99326.03;;;5.87;100.00
11349;BME280;5729;43.570;27.826;2023-02-20T05:41:14;99338.72;;;6.25;100.00
11349;BME280;5729;43.570;27.826;2023-02-20T05:43:40;99331.56;;;5.99;100.00
11349;BME280;5729;43.570;27.826;2023-02-20T05:46:05;99342.69;;;6.18;100.00
11349;BME280;5729;43.570;27.826;2023-02-20T05:48:30;99351.50;;;6.19;100.00
11349;BME280;5729;43.570;27.826;2023-02-20T05:50:56;99360.47;;;6.14;100.00
11349;BME280;5729;43.570;27.826;2023-02-20T05:53:21;99359.28;;;5.86;100.00
11349;BME280;5729;43.570;27.826;2023-02-20T05:55:47;99385.56;;;5.93;100.00
11349;BME280;5729;43.570;27.826;2023-02-20T05:58:12;99394.19;;;5.98;100.00
11349;BME280;5729;43.570;27.826;2023-02-20T06:00:38;99400.94;;;5.87;100.00
11349;BME280;5729;43.570;27.826;2023-02-20T06:03:07;99411.06;;;5.90;100.00
11349;BME280;5729;43.570;27.826;2023-02-20T06:05:32;99417.19;;;5.91;100.00
11349;BME280;5729;43.570;27.826;2023-02-20T06:07:58;99431.81;;;5.84;100.00
11349;BME280;5729;43.570;27.826;2023-02-20T06:10:23;99440.47;;;5.90;100.00
11349;BME280;5729;43.570;27.826;2023-02-20T06:12:49;99457.78;;;5.75;100.00
11349;BME280;5729;43.570;27.826;2023-02-20T06:15:14;99468.50;;;5.93;100.00
11349;BME280;5729;43.570;27.826;2023-02-20T06:17:39;99460.00;;;5.91;100.00
11349;BME280;5729;43.570;27.826;2023-02-20T06:20:05;99467.88;;;5.96;100.00
11349;BME280;5729;43.570;27.826;2023-02-20T06:22:31;99461.06;;;5.98;100.00
11349;BME280;5729;43.570;27.826;2023-02-20T06:24:56;99461.22;;;5.84;100.00
11349;BME280;5729;43.570;27.826;2023-02-20T06:27:22;99469.25;;;6.02;100.00
11349;BME280;5729;43.570;27.826;2023-02-20T06:29:47;99473.38;;;5.91;100.00
11349;BME280;5729;43.570;27.826;2023-02-20T06:32:12;99474.75;;;5.79;100.00
11349;BME280;5729;43.570;27.826;2023-02-20T06:34:38;99468.59;;;5.88;100.00
11349;BME280;5729;43.570;27.826;2023-02-20T06:37:03;99476.00;;;5.82;100.00
11349;BME280;5729;43.570;27.826;2023-02-20T06:39:30;99479.97;;;5.93;100.00
11349;BME280;5729;43.570;27.826;2023-02-20T06:41:56;99473.19;;;5.78;100.00
11349;BME280;5729;43.570;27.826;2023-02-20T06:44:21;99469.53;;;5.66;100.00
11349;BME280;5729;43.570;27.826;2023-02-20T06:46:48;99470.81;;;5.68;100.00
11349;BME280;5729;43.570;27.826;2023-02-20T06:49:13;99486.53;;;5.78;100.00
11349;BME280;5729;43.570;27.826;2023-02-20T06:51:39;99472.56;;;5.81;100.00
11349;BME280;5729;43.570;27.826;2023-02-20T06:54:06;99465.00;;;5.83;100.00
11349;BME280;5729;43.570;27.826;2023-02-20T06:56:34;99487.66;;;5.77;100.00
11349;BME280;5729;43.570;27.826;2023-02-20T06:59:02;99503.34;;;5.53;100.00
11349;BME280;5729;43.570;27.826;2023-02-20T07:01:30;99514.81;;;5.45;100.00
11349;BME280;5729;43.570;27.826;2023-02-20T07:03:58;99514.81;;;5.36;100.00
11349;BME280;5729;43.570;27.826;2023-02-20T07:06:24;99518.56;;;5.35;100.00
11349;BME280;5729;43.570;27.826;2023-02-20T07:08:50;99520.47;;;5.35;100.00
11349;BME280;5729;43.570;27.826;2023-02-20T07:11:17;99521.84;;;5.32;100.00
11349;BME280;5729;43.570;27.826;2023-02-20T07:13:43;99529.53;;;5.25;100.00
11349;BME280;5729;43.570;27.826;2023-02-20T07:16:09;99534.81;;;5.08;100.00
11349;BME280;5729;43.570;27.826;2023-02-20T07:18:34;99545.09;;;4.84;100.00
11349;BME280;5729;43.570;27.826;2023-02-20T07:21:00;99541.47;;;4.80;100.00
11349;BME280;5729;43.570;27.826;2023-02-20T07:23:25;99552.69;;;4.68;100.00
11349;BME280;5729;43.570;27.826;2023-02-20T07:25:50;99541.28;;;4.54;100.00
11349;BME280;5729;43.570;27.826;2023-02-20T07:28:16;99560.72;;;4.68;100.00
11349;BME280;5729;43.570;27.826;2023-02-20T07:30:43;99575.22;;;4.53;100.00
11349;BME280;5729;43.570;27.826;2023-02-20T07:33:09;99567.81;;;4.72;100.00
11349;BME280;5729;43.570;27.826;2023-02-20T07:35:35;99559.13;;;4.45;100.00
11349;BME280;5729;43.570;27.826;2023-02-20T07:38:00;99591.66;;;4.47;100.00
11349;BME280;5729;43.570;27.826;2023-02-20T07:40:26;99602.63;;;4.45;100.00
11349;BME280;5729;43.570;27.826;2023-02-20T07:42:51;99584.94;;;4.49;100.00
11349;BME280;5729;43.570;27.826;2023-02-20T07:45:17;99594.44;;;4.42;100.00
11349;BME280;5729;43.570;27.826;2023-02-20T07:47:42;99591.94;;;3.87;100.00
11349;BME280;5729;43.570;27.826;2023-02-20T07:50:08;99602.47;;;4.06;100.00
11349;BME280;5729;43.570;27.826;2023-02-20T07:52:33;99589.44;;;4.04;100.00
11349;BME280;5729;43.570;27.826;2023-02-20T07:54:59;99590.81;;;4.37;100.00
11349;BME280;5729;43.570;27.826;2023-02-20T07:57:24;99597.91;;;4.64;100.00
11349;BME280;5729;43.570;27.826;2023-02-20T07:59:50;99606.41;;;4.66;100.00
11349;BME280;5729;43.570;27.826;2023-02-20T08:02:15;99612.84;;;4.29;100.00
11349;BME280;5729;43.570;27.826;2023-02-20T08:04:41;99613.25;;;4.36;100.00
11349;BME280;5729;43.570;27.826;2023-02-20T08:07:06;99623.38;;;4.12;100.00
11349;BME280;5729;43.570;27.826;2023-02-20T08:09:32;99628.38;;;3.91;100.00
11349;BME280;5729;43.570;27.826;2023-02-20T08:11:57;99626.31;;;3.75;100.00
11349;BME280;5729;43.570;27.826;2023-02-20T08:14:23;99620.44;;;4.14;100.00
11349;BME280;5729;43.570;27.826;2023-02-20T08:16:48;99643.47;;;3.96;100.00
11349;BME280;5729;43.570;27.826;2023-02-20T08:19:14;99653.75;;;4.03;100.00
11349;BME280;5729;43.570;27.826;2023-02-20T08:21:39;99646.09;;;4.23;100.00
11349;BME280;5729;43.570;27.826;2023-02-20T08:24:05;99640.19;;;4.13;100.00
11349;BME280;5729;43.570;27.826;2023-02-20T08:26:31;99662.06;;;4.37;100.00
11349;BME280;5729;43.570;27.826;2023-02-20T08:28:59;99653.72;;;4.52;100.00
11349;BME280;5729;43.570;27.826;2023-02-20T08:31:24;99650.75;;;4.76;100.00
11349;BME280;5729;43.570;27.826;2023-02-20T08:33:51;99647.66;;;4.60;100.00
11349;BME280;5729;43.570;27.826;2023-02-20T08:36:17;99649.31;;;4.34;100.00
11349;BME280;5729;43.570;27.826;2023-02-20T08:38:43;99646.91;;;4.46;100.00
11349;BME280;5729;43.570;27.826;2023-02-20T08:41:11;99644.00;;;4.34;100.00
11349;BME280;5729;43.570;27.826;2023-02-20T08:43:38;99671.16;;;4.72;100.00
11349;BME280;5729;43.570;27.826;2023-02-20T08:46:05;99659.84;;;4.97;100.00
11349;BME280;5729;43.570;27.826;2023-02-20T08:48:31;99664.78;;;5.35;100.00
11349;BME280;5729;43.570;27.826;2023-02-20T08:50:57;99653.19;;;5.39;100.00
11349;BME280;5729;43.570;27.826;2023-02-20T08:53:23;99671.63;;;5.50;100.00
11349;BME280;5729;43.570;27.826;2023-02-20T08:55:48;99668.66;;;5.51;100.00
11349;BME280;5729;43.570;27.826;2023-02-20T08:58:21;99677.97;;;5.31;100.00
11349;BME280;5729;43.570;27.826;2023-02-20T09:00:47;99675.47;;;5.35;100.00
11349;BME280;5729;43.570;27.826;2023-02-20T09:03:13;99675.69;;;5.47;100.00
11349;BME280;5729;43.570;27.826;2023-02-20T09:05:39;99678.59;;;5.59;100.00
11349;BME280;5729;43.570;27.826;2023-02-20T09:08:04;99681.13;;;5.64;100.00
11349;BME280;5729;43.570;27.826;2023-02-20T09:10:30;99671.78;;;5.53;100.00
11349;BME280;5729;43.570;27.826;2023-02-20T09:12:55;99671.88;;;5.79;100.00
11349;BME280;5729;43.570;27.826;2023-02-20T09:15:21;99662.88;;;5.97;100.00
11349;BME280;5729;43.570;27.826;2023-02-20T09:17:47;99667.06;;;5.90;100.00
11349;BME280;5729;43.570;27.826;2023-02-20T09:20:14;99676.44;;;6.27;100.00
11349;BME280;5729;43.570;27.826;2023-02-20T09:22:40;99658.97;;;6.46;100.00
11349;BME280;5729;43.570;27.826;2023-02-20T09:25:06;99668.13;;;6.63;100.00
11349;BME280;5729;43.570;27.826;2023-02-20T09:27:32;99673.94;;;6.82;100.00
11349;BME280;5729;43.570;27.826;2023-02-20T09:29:58;99671.91;;;6.62;100.00
11349;BME280;5729;43.570;27.826;2023-02-20T09:32:23;99662.13;;;6.83;100.00
11349;BME280;5729;43.570;27.826;2023-02-20T09:34:48;99681.84;;;6.87;100.00
11349;BME280;5729;43.570;27.826;2023-02-20T09:37:14;99667.03;;;6.64;100.00
11349;BME280;5729;43.570;27.826;2023-02-20T09:39:39;99678.97;;;6.92;100.00
11349;BME280;5729;43.570;27.826;2023-02-20T09:42:47;99675.69;;;6.69;100.00
11349;BME280;5729;43.570;27.826;2023-02-20T09:45:14;99686.53;;;6.90;100.00
11349;BME280;5729;43.570;27.826;2023-02-20T09:50:23;99682.78;;;6.74;100.00
11349;BME280;5729;43.570;27.826;2023-02-20T09:53:00;99697.91;;;6.87;100.00
11349;BME280;5729;43.570;27.826;2023-02-20T09:55:34;99665.13;;;6.99;100.00
11349;BME280;5729;43.570;27.826;2023-02-20T09:58:02;99658.94;;;7.15;100.00
11349;BME280;5729;43.570;27.826;2023-02-20T10:00:31;99697.09;;;7.68;100.00
11349;BME280;5729;43.570;27.826;2023-02-20T10:03:23;99706.03;;;7.80;100.00
11349;BME280;5729;43.570;27.826;2023-02-20T10:05:52;99706.59;;;7.65;100.00
11349;BME280;5729;43.570;27.826;2023-02-20T10:08:20;99720.00;;;8.03;100.00
11349;BME280;5729;43.570;27.826;2023-02-20T10:10:50;99712.88;;;8.07;100.00
11349;BME280;5729;43.570;27.826;2023-02-20T10:13:56;99720.25;;;7.81;100.00
11349;BME280;5729;43.570;27.826;2023-02-20T10:18:57;99722.94;;;7.25;100.00
11349;BME280;5729;43.570;27.826;2023-02-20T10:27:47;99690.41;;;7.36;100.00
11349;BME280;5729;43.570;27.826;2023-02-20T10:31:20;99681.50;;;7.61;100.00
11349;BME280;5729;43.570;27.826;2023-02-20T10:35:59;99668.16;;;7.82;100.00
11349;BME280;5729;43.570;27.826;2023-02-20T10:38:32;99666.19;;;7.91;100.00
11349;BME280;5729;43.570;27.826;2023-02-20T10:41:27;99671.09;;;8.48;100.00
11349;BME280;5729;43.570;27.826;2023-02-20T10:48:59;99660.66;;;8.88;100.00
11349;BME280;5729;43.570;27.826;2023-02-20T10:51:38;99672.03;;;9.05;100.00
11349;BME280;5729;43.570;27.826;2023-02-20T10:56:47;99673.78;;;9.34;100.00
11349;BME280;5729;43.570;27.826;2023-02-20T11:01:55;99670.97;;;9.31;100.00
11349;BME280;5729;43.570;27.826;2023-02-20T11:04:33;99662.00;;;8.94;100.00
11349;BME280;5729;43.570;27.826;2023-02-20T11:07:09;99654.13;;;9.09;100.00
11349;BME280;5729;43.570;27.826;2023-02-20T11:09:39;99649.44;;;8.86;100.00
11349;BME280;5729;43.570;27.826;2023-02-20T11:12:05;99648.09;;;8.92;100.00
11349;BME280;5729;43.570;27.826;2023-02-20T11:14:42;99641.22;;;9.15;100.00
11349;BME280;5729;43.570;27.826;2023-02-20T11:17:14;99647.13;;;9.41;100.00
11349;BME280;5729;43.570;27.826;2023-02-20T11:19:43;99627.72;;;9.60;100.00
11349;BME280;5729;43.570;27.826;2023-02-20T11:22:09;99638.84;;;9.71;100.00
11349;BME280;5729;43.570;27.826;2023-02-20T11:24:37;99638.84;;;9.71;100.00
11349;BME280;5729;43.570;27.826;2023-02-20T11:29:38;99640.84;;;9.62;100.00
11349;BME280;5729;43.570;27.826;2023-02-20T11:37:41;99637.66;;;9.11;100.00
11349;BME280;5729;43.570;27.826;2023-02-20T11:40:27;99642.94;;;9.20;100.00
11349;BME280;5729;43.570;27.826;2023-02-20T11:42:55;99641.75;;;9.41;100.00
11349;BME280;5729;43.570;27.826;2023-02-20T11:45:25;99631.53;;;9.35;100.00
11349;BME280;5729;43.570;27.826;2023-02-20T11:50:52;99635.34;;;10.19;100.00
11349;BME280;5729;43.570;27.826;2023-02-20T11:53:23;99638.63;;;10.25;100.00
11349;BME280;5729;43.570;27.826;2023-02-20T11:56:07;99637.72;;;10.21;100.00
11349;BME280;5729;43.570;27.826;2023-02-20T11:58:33;99647.38;;;9.85;100.00
11349;BME280;5729;43.570;27.826;2023-02-20T12:00:58;99654.31;;;9.62;100.00
11349;BME280;5729;43.570;27.826;2023-02-20T12:03:31;99656.00;;;9.54;100.00
11349;BME280;5729;43.570;27.826;2023-02-20T12:06:00;99655.44;;;9.36;100.00
11349;BME280;5729;43.570;27.826;2023-02-20T12:08:55;99652.84;;;9.52;100.00
11349;BME280;5729;43.570;27.826;2023-02-20T12:11:24;99664.84;;;9.55;100.00
11349;BME280;5729;43.570;27.826;2023-02-20T12:13:52;99663.50;;;9.73;100.00
11349;BME280;5729;43.570;27.826;2023-02-20T12:24:16;99652.25;;;11.43;96.21
11349;BME280;5729;43.570;27.826;2023-02-20T12:29:44;99659.91;;;11.25;87.42
11349;BME280;5729;43.570;27.826;2023-02-20T12:32:34;99638.28;;;11.10;82.80
11349;BME280;5729;43.570;27.826;2023-02-20T12:40:52;99664.84;;;10.80;90.08
11349;BME280;5729;43.570;27.826;2023-02-20T12:56:56;99647.25;;;11.29;80.56
11349;BME280;5729;43.570;27.826;2023-02-20T13:02:38;99638.41;;;11.60;87.81
11349;BME280;5729;43.570;27.826;2023-02-20T13:05:08;99636.06;;;12.45;74.34
11349;BME280;5729;43.570;27.826;2023-02-20T13:07:44;99637.19;;;13.43;66.32
11349;BME280;5729;43.570;27.826;2023-02-20T13:10:29;99635.84;;;13.34;62.24
11349;BME280;5729;43.570;27.826;2023-02-20T13:12:57;99639.50;;;12.80;64.21
11349;BME280;5729;43.570;27.826;2023-02-20T13:15:37;99634.81;;;12.04;67.73
11349;BME280;5729;43.570;27.826;2023-02-20T13:20:39;99633.03;;;10.58;77.84
11349;BME280;5729;43.570;27.826;2023-02-20T13:25:45;99625.16;;;9.76;98.29
11349;BME280;5729;43.570;27.826;2023-02-20T13:30:37;99616.19;;;9.72;89.25
11349;BME280;5729;43.570;27.826;2023-02-20T13:33:21;99631.34;;;9.89;89.88
11349;BME280;5729;43.570;27.826;2023-02-20T13:35:55;99625.16;;;10.00;97.16
11349;BME280;5729;43.570;27.826;2023-02-20T13:38:23;99635.25;;;10.15;94.32
11349;BME280;5729;43.570;27.826;2023-02-20T13:46:15;99627.41;;;9.86;100.00
11349;BME280;5729;43.570;27.826;2023-02-20T13:48:49;99624.03;;;9.65;98.77
11349;BME280;5729;43.570;27.826;2023-02-20T13:53:50;99623.78;;;9.21;100.00
11349;BME280;5729;43.570;27.826;2023-02-20T13:58:44;99610.59;;;8.95;100.00
11349;BME280;5729;43.570;27.826;2023-02-20T14:01:10;99610.63;;;9.07;100.00
11349;BME280;5729;43.570;27.826;2023-02-20T14:03:35;99609.66;;;9.12;100.00
11349;BME280;5729;43.570;27.826;2023-02-20T14:08:30;99620.84;;;9.26;100.00
11349;BME280;5729;43.570;27.826;2023-02-20T14:11:06;99612.00;;;9.14;100.00
11349;BME280;5729;43.570;27.826;2023-02-20T14:13:33;99607.84;;;9.16;100.00
11349;BME280;5729;43.570;27.826;2023-02-20T14:15:59;99621.97;;;9.13;100.00
11349;BME280;5729;43.570;27.826;2023-02-20T14:18:32;99617.38;;;9.14;100.00
11349;BME280;5729;43.570;27.826;2023-02-20T14:23:29;99613.88;;;9.01;100.00
11349;BME280;5729;43.570;27.826;2023-02-20T14:25:58;99616.59;;;9.13;100.00
11349;BME280;5729;43.570;27.826;2023-02-20T14:28:24;99610.66;;;9.20;100.00
11349;BME280;5729;43.570;27.826;2023-02-20T14:33:35;99597.75;;;9.01;100.00
11349;BME280;5729;43.570;27.826;2023-02-20T14:36:29;99594.47;;;8.95;100.00
11349;BME280;5729;43.570;27.826;2023-02-20T14:41:59;99606.41;;;8.73;99.42
11349;BME280;5729;43.570;27.826;2023-02-20T14:44:25;99607.00;;;8.58;97.62
11349;BME280;5729;43.570;27.826;2023-02-20T14:46:54;99610.63;;;8.42;95.72
11349;BME280;5729;43.570;27.826;2023-02-20T14:49:28;99616.78;;;8.42;95.58
11349;BME280;5729;43.570;27.826;2023-02-20T14:52:11;99618.03;;;8.45;100.00
11349;BME280;5729;43.570;27.826;2023-02-20T14:54:42;99606.97;;;8.46;100.00
11349;BME280;5729;43.570;27.826;2023-02-20T14:57:13;99607.13;;;8.62;94.84
11349;BME280;5729;43.570;27.826;2023-02-20T14:59:40;99598.94;;;8.58;88.02
11349;BME280;5729;43.570;27.826;2023-02-20T15:02:21;99608.00;;;8.54;80.40
11349;BME280;5729;43.570;27.826;2023-02-20T15:04:53;99606.75;;;8.51;75.59
11349;BME280;5729;43.570;27.826;2023-02-20T15:07:22;99599.03;;;8.50;72.07
11349;BME280;5729;43.570;27.826;2023-02-20T15:09:50;99599.28;;;8.36;71.00
11349;BME280;5729;43.570;27.826;2023-02-20T15:12:22;99593.19;;;8.27;71.64
11349;BME280;5729;43.570;27.826;2023-02-20T15:15:03;99603.44;;;8.25;73.71
11349;BME280;5729;43.570;27.826;2023-02-20T15:17:34;99596.84;;;8.22;73.01
11349;BME280;5729;43.570;27.826;2023-02-20T15:20:36;99593.50;;;8.05;75.16
11349;BME280;5729;43.570;27.826;2023-02-20T15:23:24;99595.94;;;7.97;77.54
11349;BME280;5729;43.570;27.826;2023-02-20T15:25:50;99594.25;;;7.84;80.57
11349;BME280;5729;43.570;27.826;2023-02-20T15:33:53;99591.78;;;7.50;92.01
11349;BME280;5729;43.570;27.826;2023-02-20T15:36:22;99609.59;;;7.46;97.65